sensor_id;sensor_type;location;lat;lon;timestamp;P1;durP1;ratioP1;P2;durP2;ratioP2
11735;SDS011;5924;51.398;7.088;2023-08-12T00:00:18;26.70;;;17.60;;
11735;SDS011;5924;51.398;7.088;2023-08-12T00:02:44;14.20;;;12.70;;
11735;SDS011;5924;51.398;7.088;2023-08-12T00:05:10;13.97;;;11.83;;
11735;SDS011;5924;51.398;7.088;2023-08-12T00:07:36;22.10;;;15.37;;
11735;SDS011;5924;51.398;7.088;2023-08-12T00:10:03;13.13;;;11.70;;
11735;SDS011;5924;51.398;7.088;2023-08-12T00:12:31;17.50;;;13.30;;
11735;SDS011;5924;51.398;7.088;2023-08-12T00:14:57;15.80;;;13.17;;
11735;SDS011;5924;51.398;7.088;2023-08-12T00:17:23;13.43;;;12.03;;
11735;SDS011;5924;51.398;7.088;2023-08-12T00:19:48;19.97;;;15.30;;
11735;SDS011;5924;51.398;7.088;2023-08-12T00:22:14;20.10;;;13.87;;
11735;SDS011;5924;51.398;7.088;2023-08-12T00:24:40;16.27;;;13.30;;
11735;SDS011;5924;51.398;7.088;2023-08-12T00:27:06;21.83;;;14.37;;
11735;SDS011;5924;51.398;7.088;2023-08-12T00:29:32;18.63;;;14.40;;
11735;SDS011;5924;51.398;7.088;2023-08-12T00:31:57;24.73;;;16.80;;
11735;SDS011;5924;51.398;7.088;2023-08-12T00:34:23;34.17;;;22.00;;
11735;SDS011;5924;51.398;7.088;2023-08-12T00:36:49;17.77;;;13.93;;
11735;SDS011;5924;51.398;7.088;2023-08-12T00:39:20;35.20;;;22.60;;
11735;SDS011;5924;51.398;7.088;2023-08-12T00:42:10;21.10;;;17.10;;
11735;SDS011;5924;51.398;7.088;2023-08-12T00:44:36;25.13;;;16.13;;
11735;SDS011;5924;51.398;7.088;2023-08-12T00:47:01;17.80;;;13.70;;
11735;SDS011;5924;51.398;7.088;2023-08-12T00:49:28;15.60;;;12.00;;
11735;SDS011;5924;51.398;7.088;2023-08-12T00:51:57;20.60;;;15.40;;
11735;SDS011;5924;51.398;7.088;2023-08-12T00:54:22;31.20;;;20.20;;
11735;SDS011;5924;51.398;7.088;2023-08-12T00:56:50;24.60;;;16.10;;
11735;SDS011;5924;51.398;7.088;2023-08-12T00:59:17;14.90;;;13.30;;
11735;SDS011;5924;51.398;7.088;2023-08-12T01:01:48;22.47;;;16.20;;
11735;SDS011;5924;51.398;7.088;2023-08-12T01:04:18;17.47;;;11.37;;
11735;SDS011;5924;51.398;7.088;2023-08-12T01:06:43;24.63;;;15.40;;
11735;SDS011;5924;51.398;7.088;2023-08-12T01:09:10;14.13;;;11.50;;
11735;SDS011;5924;51.398;7.088;2023-08-12T01:17:30;16.03;;;12.90;;
11735;SDS011;5924;51.398;7.088;2023-08-12T01:20:00;17.27;;;10.97;;
11735;SDS011;5924;51.398;7.088;2023-08-12T01:22:33;11.07;;;9.83;;
11735;SDS011;5924;51.398;7.088;2023-08-12T01:25:09;10.03;;;8.97;;
11735;SDS011;5924;51.398;7.088;2023-08-12T01:27:35;22.90;;;14.87;;
11735;SDS011;5924;51.398;7.088;2023-08-12T01:30:04;21.63;;;14.40;;
11735;SDS011;5924;51.398;7.088;2023-08-12T01:32:37;17.63;;;11.87;;
11735;SDS011;5924;51.398;7.088;2023-08-12T01:35:52;14.60;;;12.00;;
11735;SDS011;5924;51.398;7.088;2023-08-12T01:38:15;19.67;;;13.50;;
11735;SDS011;5924;51.398;7.088;2023-08-12T01:40:46;10.70;;;9.60;;
11735;SDS011;5924;51.398;7.088;2023-08-12T01:43:13;14.13;;;12.40;;
11735;SDS011;5924;51.398;7.088;2023-08-12T01:45:42;16.30;;;13.67;;
11735;SDS011;5924;51.398;7.088;2023-08-12T01:48:08;19.83;;;16.07;;
11735;SDS011;5924;51.398;7.088;2023-08-12T01:50:37;15.00;;;12.63;;
11735;SDS011;5924;51.398;7.088;2023-08-12T01:53:03;12.57;;;10.87;;
11735;SDS011;5924;51.398;7.088;2023-08-12T01:55:36;15.90;;;12.33;;
11735;SDS011;5924;51.398;7.088;2023-08-12T01:58:11;14.50;;;11.00;;
11735;SDS011;5924;51.398;7.088;2023-08-12T02:00:37;15.13;;;11.40;;
11735;SDS011;5924;51.398;7.088;2023-08-12T02:03:02;16.70;;;13.17;;
11735;SDS011;5924;51.398;7.088;2023-08-12T02:05:28;10.80;;;9.70;;
11735;SDS011;5924;51.398;7.088;2023-08-12T02:07:54;12.90;;;10.80;;
11735;SDS011;5924;51.398;7.088;2023-08-12T02:10:20;13.13;;;9.40;;
11735;SDS011;5924;51.398;7.088;2023-08-12T02:12:49;11.00;;;9.90;;
11735;SDS011;5924;51.398;7.088;2023-08-12T02:15:15;9.13;;;8.27;;
11735;SDS011;5924;51.398;7.088;2023-08-12T02:17:40;11.60;;;9.40;;
11735;SDS011;5924;51.398;7.088;2023-08-12T02:20:06;11.27;;;9.43;;
11735;SDS011;5924;51.398;7.088;2023-08-12T02:22:32;12.10;;;10.90;;
11735;SDS011;5924;51.398;7.088;2023-08-12T02:25:01;11.47;;;10.40;;
11735;SDS011;5924;51.398;7.088;2023-08-12T02:27:27;9.37;;;8.50;;
11735;SDS011;5924;51.398;7.088;2023-08-12T02:29:52;9.27;;;8.40;;
11735;SDS011;5924;51.398;7.088;2023-08-12T02:32:21;12.83;;;11.50;;
11735;SDS011;5924;51.398;7.088;2023-08-12T02:34:47;8.30;;;7.50;;
11735;SDS011;5924;51.398;7.088;2023-08-12T02:37:12;8.77;;;8.17;;
11735;SDS011;5924;51.398;7.088;2023-08-12T02:39:38;8.47;;;7.77;;
11735;SDS011;5924;51.398;7.088;2023-08-12T02:42:10;7.03;;;6.50;;
11735;SDS011;5924;51.398;7.088;2023-08-12T02:44:38;8.63;;;7.90;;
11735;SDS011;5924;51.398;7.088;2023-08-12T02:47:04;10.70;;;9.57;;
11735;SDS011;5924;51.398;7.088;2023-08-12T02:49:32;16.10;;;13.60;;
11735;SDS011;5924;51.398;7.088;2023-08-12T02:51:58;11.37;;;10.23;;
11735;SDS011;5924;51.398;7.088;2023-08-12T02:54:26;15.30;;;11.60;;
11735;SDS011;5924;51.398;7.088;2023-08-12T02:56:51;13.20;;;10.23;;
11735;SDS011;5924;51.398;7.088;2023-08-12T02:59:25;11.93;;;10.50;;
11735;SDS011;5924;51.398;7.088;2023-08-12T03:01:57;15.47;;;10.83;;
11735;SDS011;5924;51.398;7.088;2023-08-12T03:04:25;12.20;;;9.93;;
11735;SDS011;5924;51.398;7.088;2023-08-12T03:06:51;8.63;;;8.00;;
11735;SDS011;5924;51.398;7.088;2023-08-12T03:09:16;13.10;;;11.60;;
11735;SDS011;5924;51.398;7.088;2023-08-12T03:11:43;10.27;;;8.90;;
11735;SDS011;5924;51.398;7.088;2023-08-12T03:14:11;19.70;;;14.13;;
11735;SDS011;5924;51.398;7.088;2023-08-12T03:16:51;26.33;;;14.53;;
11735;SDS011;5924;51.398;7.088;2023-08-12T03:19:17;18.13;;;13.37;;
11735;SDS011;5924;51.398;7.088;2023-08-12T03:21:43;21.70;;;15.70;;
11735;SDS011;5924;51.398;7.088;2023-08-12T03:24:08;25.93;;;15.80;;
11735;SDS011;5924;51.398;7.088;2023-08-12T03:26:34;22.23;;;16.73;;
11735;SDS011;5924;51.398;7.088;2023-08-12T03:29:04;28.40;;;18.53;;
11735;SDS011;5924;51.398;7.088;2023-08-12T03:31:29;28.47;;;16.90;;
11735;SDS011;5924;51.398;7.088;2023-08-12T03:33:55;20.87;;;14.10;;
11735;SDS011;5924;51.398;7.088;2023-08-12T03:36:23;13.73;;;11.13;;
11735;SDS011;5924;51.398;7.088;2023-08-12T03:38:49;21.37;;;12.37;;
11735;SDS011;5924;51.398;7.088;2023-08-12T03:41:15;18.77;;;13.97;;
11735;SDS011;5924;51.398;7.088;2023-08-12T03:43:43;13.97;;;12.40;;
11735;SDS011;5924;51.398;7.088;2023-08-12T03:46:09;24.27;;;16.57;;
11735;SDS011;5924;51.398;7.088;2023-08-12T03:48:35;27.23;;;19.73;;
11735;SDS011;5924;51.398;7.088;2023-08-12T03:51:06;18.10;;;13.57;;
11735;SDS011;5924;51.398;7.088;2023-08-12T03:53:33;13.20;;;10.63;;
11735;SDS011;5924;51.398;7.088;2023-08-12T03:55:59;14.67;;;10.70;;
11735;SDS011;5924;51.398;7.088;2023-08-12T03:58:28;16.63;;;12.90;;
11735;SDS011;5924;51.398;7.088;2023-08-12T04:00:54;8.60;;;7.90;;
11735;SDS011;5924;51.398;7.088;2023-08-12T04:03:19;10.93;;;9.80;;
11735;SDS011;5924;51.398;7.088;2023-08-12T04:05:54;9.57;;;8.73;;
11735;SDS011;5924;51.398;7.088;2023-08-12T04:08:20;14.80;;;11.40;;
11735;SDS011;5924;51.398;7.088;2023-08-12T04:10:54;11.30;;;10.03;;
11735;SDS011;5924;51.398;7.088;2023-08-12T04:13:25;13.40;;;9.80;;
11735;SDS011;5924;51.398;7.088;2023-08-12T04:15:54;18.33;;;13.30;;
11735;SDS011;5924;51.398;7.088;2023-08-12T04:18:20;14.90;;;11.83;;
11735;SDS011;5924;51.398;7.088;2023-08-12T04:20:48;13.63;;;12.10;;
11735;SDS011;5924;51.398;7.088;2023-08-12T04:23:15;10.63;;;9.43;;
11735;SDS011;5924;51.398;7.088;2023-08-12T04:25:43;7.80;;;7.30;;
11735;SDS011;5924;51.398;7.088;2023-08-12T04:28:10;9.40;;;8.67;;
11735;SDS011;5924;51.398;7.088;2023-08-12T04:30:39;15.73;;;11.23;;
11735;SDS011;5924;51.398;7.088;2023-08-12T04:33:06;11.37;;;10.37;;
11735;SDS011;5924;51.398;7.088;2023-08-12T04:35:32;13.70;;;12.17;;
11735;SDS011;5924;51.398;7.088;2023-08-12T04:37:57;13.90;;;10.23;;
11735;SDS011;5924;51.398;7.088;2023-08-12T04:40:23;15.77;;;10.83;;
11735;SDS011;5924;51.398;7.088;2023-08-12T04:42:54;10.37;;;9.37;;
11735;SDS011;5924;51.398;7.088;2023-08-12T04:45:20;14.73;;;9.47;;
11735;SDS011;5924;51.398;7.088;2023-08-12T04:47:46;8.40;;;7.10;;
11735;SDS011;5924;51.398;7.088;2023-08-12T04:50:12;11.50;;;9.70;;
11735;SDS011;5924;51.398;7.088;2023-08-12T04:52:38;24.47;;;12.10;;
11735;SDS011;5924;51.398;7.088;2023-08-12T04:55:04;16.30;;;12.07;;
11735;SDS011;5924;51.398;7.088;2023-08-12T04:57:32;11.60;;;9.77;;
11735;SDS011;5924;51.398;7.088;2023-08-12T05:00:00;14.13;;;11.50;;
11735;SDS011;5924;51.398;7.088;2023-08-12T05:02:26;13.83;;;11.10;;
11735;SDS011;5924;51.398;7.088;2023-08-12T05:04:58;10.60;;;9.60;;
11735;SDS011;5924;51.398;7.088;2023-08-12T05:07:34;15.43;;;12.17;;
11735;SDS011;5924;51.398;7.088;2023-08-12T05:09:59;12.70;;;10.50;;
11735;SDS011;5924;51.398;7.088;2023-08-12T05:12:27;14.33;;;11.60;;
11735;SDS011;5924;51.398;7.088;2023-08-12T05:14:54;19.50;;;12.43;;
11735;SDS011;5924;51.398;7.088;2023-08-12T05:17:19;13.30;;;11.73;;
11735;SDS011;5924;51.398;7.088;2023-08-12T05:19:45;14.93;;;12.53;;
11735;SDS011;5924;51.398;7.088;2023-08-12T05:22:13;14.20;;;11.80;;
11735;SDS011;5924;51.398;7.088;2023-08-12T05:24:40;11.07;;;9.80;;
11735;SDS011;5924;51.398;7.088;2023-08-12T05:27:06;11.20;;;10.03;;
11735;SDS011;5924;51.398;7.088;2023-08-12T05:29:31;12.73;;;11.53;;
11735;SDS011;5924;51.398;7.088;2023-08-12T05:31:57;11.40;;;10.33;;
11735;SDS011;5924;51.398;7.088;2023-08-12T05:34:23;8.27;;;7.67;;
11735;SDS011;5924;51.398;7.088;2023-08-12T05:36:52;12.40;;;11.10;;
11735;SDS011;5924;51.398;7.088;2023-08-12T05:39:17;11.87;;;10.10;;
11735;SDS011;5924;51.398;7.088;2023-08-12T05:41:43;8.87;;;8.17;;
11735;SDS011;5924;51.398;7.088;2023-08-12T05:44:10;12.90;;;10.90;;
11735;SDS011;5924;51.398;7.088;2023-08-12T05:46:36;15.27;;;11.70;;
11735;SDS011;5924;51.398;7.088;2023-08-12T05:51:54;13.07;;;10.00;;
11735;SDS011;5924;51.398;7.088;2023-08-12T05:54:23;9.20;;;8.40;;
11735;SDS011;5924;51.398;7.088;2023-08-12T05:56:51;9.97;;;8.70;;
11735;SDS011;5924;51.398;7.088;2023-08-12T05:59:27;13.23;;;9.27;;
11735;SDS011;5924;51.398;7.088;2023-08-12T06:01:53;10.30;;;9.20;;
11735;SDS011;5924;51.398;7.088;2023-08-12T06:04:19;9.93;;;7.90;;
11735;SDS011;5924;51.398;7.088;2023-08-12T06:06:45;10.13;;;9.03;;
11735;SDS011;5924;51.398;7.088;2023-08-12T06:09:13;11.47;;;8.30;;
11735;SDS011;5924;51.398;7.088;2023-08-12T06:11:41;8.70;;;7.90;;
11735;SDS011;5924;51.398;7.088;2023-08-12T06:14:10;8.67;;;7.97;;
11735;SDS011;5924;51.398;7.088;2023-08-12T06:16:44;9.67;;;7.80;;
11735;SDS011;5924;51.398;7.088;2023-08-12T06:19:10;9.40;;;7.80;;
11735;SDS011;5924;51.398;7.088;2023-08-12T06:21:43;6.40;;;6.10;;
11735;SDS011;5924;51.398;7.088;2023-08-12T06:24:08;7.87;;;7.07;;
11735;SDS011;5924;51.398;7.088;2023-08-12T06:26:34;7.60;;;7.00;;
11735;SDS011;5924;51.398;7.088;2023-08-12T06:29:00;7.63;;;6.47;;
11735;SDS011;5924;51.398;7.088;2023-08-12T06:31:43;7.30;;;6.70;;
11735;SDS011;5924;51.398;7.088;2023-08-12T06:34:09;7.60;;;6.20;;
11735;SDS011;5924;51.398;7.088;2023-08-12T06:36:34;6.10;;;5.80;;
11735;SDS011;5924;51.398;7.088;2023-08-12T06:39:00;6.80;;;6.23;;
11735;SDS011;5924;51.398;7.088;2023-08-12T06:41:26;6.67;;;6.07;;
11735;SDS011;5924;51.398;7.088;2023-08-12T06:43:54;6.20;;;5.63;;
11735;SDS011;5924;51.398;7.088;2023-08-12T06:46:20;8.50;;;6.90;;
11735;SDS011;5924;51.398;7.088;2023-08-12T06:48:46;6.43;;;6.00;;
11735;SDS011;5924;51.398;7.088;2023-08-12T06:51:11;6.77;;;6.27;;
11735;SDS011;5924;51.398;7.088;2023-08-12T06:53:38;7.13;;;6.30;;
11735;SDS011;5924;51.398;7.088;2023-08-12T06:56:04;6.80;;;6.20;;
11735;SDS011;5924;51.398;7.088;2023-08-12T06:58:30;6.13;;;5.80;;
11735;SDS011;5924;51.398;7.088;2023-08-12T07:00:59;11.13;;;6.80;;
11735;SDS011;5924;51.398;7.088;2023-08-12T07:03:24;6.27;;;5.80;;
11735;SDS011;5924;51.398;7.088;2023-08-12T07:05:52;6.63;;;6.13;;
11735;SDS011;5924;51.398;7.088;2023-08-12T07:08:18;7.70;;;5.50;;
11735;SDS011;5924;51.398;7.088;2023-08-12T07:10:43;5.93;;;5.53;;
11735;SDS011;5924;51.398;7.088;2023-08-12T07:13:12;6.60;;;6.00;;
11735;SDS011;5924;51.398;7.088;2023-08-12T07:16:03;6.20;;;5.80;;
11735;SDS011;5924;51.398;7.088;2023-08-12T07:18:29;5.93;;;5.53;;
11735;SDS011;5924;51.398;7.088;2023-08-12T07:20:55;5.47;;;5.07;;
11735;SDS011;5924;51.398;7.088;2023-08-12T07:23:23;5.93;;;5.63;;
11735;SDS011;5924;51.398;7.088;2023-08-12T07:25:49;6.13;;;5.77;;
11735;SDS011;5924;51.398;7.088;2023-08-12T07:28:22;6.33;;;5.73;;
11735;SDS011;5924;51.398;7.088;2023-08-12T07:30:48;5.80;;;5.27;;
11735;SDS011;5924;51.398;7.088;2023-08-12T07:33:14;5.50;;;5.20;;
11735;SDS011;5924;51.398;7.088;2023-08-12T07:35:40;5.83;;;5.53;;
11735;SDS011;5924;51.398;7.088;2023-08-12T07:38:06;5.30;;;5.10;;
11735;SDS011;5924;51.398;7.088;2023-08-12T07:40:32;6.63;;;5.03;;
11735;SDS011;5924;51.398;7.088;2023-08-12T07:42:58;5.80;;;5.23;;
11735;SDS011;5924;51.398;7.088;2023-08-12T07:45:23;5.47;;;5.23;;
11735;SDS011;5924;51.398;7.088;2023-08-12T07:47:49;6.83;;;6.23;;
11735;SDS011;5924;51.398;7.088;2023-08-12T07:50:15;6.00;;;5.53;;
11735;SDS011;5924;51.398;7.088;2023-08-12T07:52:41;5.23;;;4.73;;
11735;SDS011;5924;51.398;7.088;2023-08-12T07:55:10;4.80;;;4.60;;
11735;SDS011;5924;51.398;7.088;2023-08-12T07:57:37;5.37;;;5.07;;
11735;SDS011;5924;51.398;7.088;2023-08-12T08:00:03;5.30;;;5.00;;
11735;SDS011;5924;51.398;7.088;2023-08-12T08:02:30;5.57;;;5.27;;
11735;SDS011;5924;51.398;7.088;2023-08-12T08:04:55;4.90;;;4.70;;
11735;SDS011;5924;51.398;7.088;2023-08-12T08:07:30;5.03;;;4.93;;
11735;SDS011;5924;51.398;7.088;2023-08-12T08:09:57;5.67;;;5.30;;
11735;SDS011;5924;51.398;7.088;2023-08-12T08:12:23;5.70;;;5.40;;
11735;SDS011;5924;51.398;7.088;2023-08-12T08:14:48;5.50;;;5.20;;
11735;SDS011;5924;51.398;7.088;2023-08-12T08:17:17;5.83;;;5.43;;
11735;SDS011;5924;51.398;7.088;2023-08-12T08:19:42;5.93;;;5.63;;
11735;SDS011;5924;51.398;7.088;2023-08-12T08:22:16;6.07;;;5.73;;
11735;SDS011;5924;51.398;7.088;2023-08-12T08:24:51;8.00;;;7.50;;
11735;SDS011;5924;51.398;7.088;2023-08-12T08:27:17;6.83;;;6.40;;
11735;SDS011;5924;51.398;7.088;2023-08-12T08:29:47;7.63;;;7.13;;
11735;SDS011;5924;51.398;7.088;2023-08-12T08:32:19;7.00;;;6.40;;
11735;SDS011;5924;51.398;7.088;2023-08-12T08:34:47;7.47;;;6.97;;
11735;SDS011;5924;51.398;7.088;2023-08-12T08:37:13;8.20;;;7.40;;
11735;SDS011;5924;51.398;7.088;2023-08-12T08:39:41;7.60;;;6.97;;
11735;SDS011;5924;51.398;7.088;2023-08-12T08:42:07;7.83;;;7.33;;
11735;SDS011;5924;51.398;7.088;2023-08-12T08:44:36;7.10;;;6.50;;
11735;SDS011;5924;51.398;7.088;2023-08-12T08:47:06;8.20;;;6.87;;
11735;SDS011;5924;51.398;7.088;2023-08-12T08:49:36;6.33;;;6.03;;
11735;SDS011;5924;51.398;7.088;2023-08-12T08:52:11;6.63;;;6.33;;
11735;SDS011;5924;51.398;7.088;2023-08-12T08:54:37;7.30;;;6.70;;
11735;SDS011;5924;51.398;7.088;2023-08-12T08:57:04;6.50;;;6.10;;
11735;SDS011;5924;51.398;7.088;2023-08-12T08:59:33;11.27;;;6.07;;
11735;SDS011;5924;51.398;7.088;2023-08-12T09:01:59;6.67;;;6.07;;
11735;SDS011;5924;51.398;7.088;2023-08-12T09:04:28;6.27;;;5.80;;
11735;SDS011;5924;51.398;7.088;2023-08-12T09:07:20;4.80;;;4.70;;
11735;SDS011;5924;51.398;7.088;2023-08-12T09:09:46;5.33;;;5.13;;
11735;SDS011;5924;51.398;7.088;2023-08-12T09:12:25;5.47;;;5.20;;
11735;SDS011;5924;51.398;7.088;2023-08-12T09:14:55;5.80;;;5.30;;
11735;SDS011;5924;51.398;7.088;2023-08-12T09:17:23;5.83;;;5.20;;
11735;SDS011;5924;51.398;7.088;2023-08-12T09:19:49;5.90;;;5.37;;
11735;SDS011;5924;51.398;7.088;2023-08-12T09:22:18;4.83;;;4.50;;
11735;SDS011;5924;51.398;7.088;2023-08-12T09:24:53;4.47;;;4.37;;
11735;SDS011;5924;51.398;7.088;2023-08-12T09:27:22;5.03;;;3.77;;
11735;SDS011;5924;51.398;7.088;2023-08-12T09:29:47;4.37;;;4.13;;
11735;SDS011;5924;51.398;7.088;2023-08-12T09:32:25;4.87;;;4.47;;
11735;SDS011;5924;51.398;7.088;2023-08-12T09:34:59;4.20;;;4.00;;
11735;SDS011;5924;51.398;7.088;2023-08-12T09:37:27;3.53;;;3.40;;
11735;SDS011;5924;51.398;7.088;2023-08-12T09:39:53;3.43;;;3.33;;
11735;SDS011;5924;51.398;7.088;2023-08-12T09:42:30;3.10;;;3.00;;
11735;SDS011;5924;51.398;7.088;2023-08-12T09:44:56;3.83;;;3.40;;
11735;SDS011;5924;51.398;7.088;2023-08-12T09:47:23;3.27;;;3.17;;
11735;SDS011;5924;51.398;7.088;2023-08-12T09:49:53;2.73;;;2.60;;
11735;SDS011;5924;51.398;7.088;2023-08-12T09:52:29;3.43;;;2.80;;
11735;SDS011;5924;51.398;7.088;2023-08-12T09:55:12;2.67;;;2.57;;
11735;SDS011;5924;51.398;7.088;2023-08-12T09:58:07;2.40;;;2.23;;
11735;SDS011;5924;51.398;7.088;2023-08-12T10:00:40;2.60;;;2.50;;
11735;SDS011;5924;51.398;7.088;2023-08-12T10:03:14;2.13;;;2.10;;
11735;SDS011;5924;51.398;7.088;2023-08-12T10:05:45;2.87;;;1.83;;
11735;SDS011;5924;51.398;7.088;2023-08-12T10:08:11;2.17;;;2.17;;
11735;SDS011;5924;51.398;7.088;2023-08-12T10:10:39;1.77;;;1.73;;
11735;SDS011;5924;51.398;7.088;2023-08-12T10:13:06;1.93;;;1.83;;
11735;SDS011;5924;51.398;7.088;2023-08-12T10:15:32;2.03;;;2.03;;
11735;SDS011;5924;51.398;7.088;2023-08-12T10:17:59;1.57;;;1.57;;
11735;SDS011;5924;51.398;7.088;2023-08-12T10:20:25;1.87;;;1.80;;
11735;SDS011;5924;51.398;7.088;2023-08-12T10:22:52;1.80;;;1.80;;
11735;SDS011;5924;51.398;7.088;2023-08-12T10:25:19;1.90;;;1.90;;
11735;SDS011;5924;51.398;7.088;2023-08-12T10:27:52;1.83;;;1.73;;
11735;SDS011;5924;51.398;7.088;2023-08-12T10:30:21;2.80;;;2.07;;
11735;SDS011;5924;51.398;7.088;2023-08-12T10:32:46;2.20;;;2.20;;
11735;SDS011;5924;51.398;7.088;2023-08-12T10:35:48;4.00;;;1.83;;
11735;SDS011;5924;51.398;7.088;2023-08-12T10:38:16;2.07;;;1.87;;
11735;SDS011;5924;51.398;7.088;2023-08-12T10:40:48;2.73;;;1.50;;
11735;SDS011;5924;51.398;7.088;2023-08-12T10:43:15;2.20;;;1.50;;
11735;SDS011;5924;51.398;7.088;2023-08-12T10:45:51;1.57;;;1.57;;
11735;SDS011;5924;51.398;7.088;2023-08-12T10:48:26;1.97;;;1.87;;
11735;SDS011;5924;51.398;7.088;2023-08-12T10:50:59;2.33;;;2.07;;
11735;SDS011;5924;51.398;7.088;2023-08-12T10:53:33;1.63;;;1.60;;
11735;SDS011;5924;51.398;7.088;2023-08-12T10:56:04;1.17;;;1.17;;
11735;SDS011;5924;51.398;7.088;2023-08-12T10:59:03;2.23;;;1.53;;
11735;SDS011;5924;51.398;7.088;2023-08-12T11:01:30;1.13;;;1.03;;
11735;SDS011;5924;51.398;7.088;2023-08-12T11:04:25;1.30;;;1.30;;
11735;SDS011;5924;51.398;7.088;2023-08-12T11:06:51;2.73;;;1.70;;
11735;SDS011;5924;51.398;7.088;2023-08-12T11:09:16;1.60;;;1.50;;
11735;SDS011;5924;51.398;7.088;2023-08-12T11:11:45;1.80;;;1.70;;
11735;SDS011;5924;51.398;7.088;2023-08-12T11:14:28;3.23;;;1.37;;
11735;SDS011;5924;51.398;7.088;2023-08-12T11:17:03;1.40;;;1.40;;
11735;SDS011;5924;51.398;7.088;2023-08-12T11:19:38;2.13;;;1.47;;
11735;SDS011;5924;51.398;7.088;2023-08-12T11:22:04;1.83;;;0.90;;
11735;SDS011;5924;51.398;7.088;2023-08-12T11:27:21;2.40;;;0.97;;
11735;SDS011;5924;51.398;7.088;2023-08-12T11:29:49;0.83;;;0.83;;
11735;SDS011;5924;51.398;7.088;2023-08-12T11:32:17;9.03;;;1.90;;
11735;SDS011;5924;51.398;7.088;2023-08-12T11:34:50;1.73;;;1.00;;
11735;SDS011;5924;51.398;7.088;2023-08-12T11:37:16;2.27;;;1.00;;
11735;SDS011;5924;51.398;7.088;2023-08-12T11:39:41;0.90;;;0.90;;
11735;SDS011;5924;51.398;7.088;2023-08-12T11:42:07;1.20;;;1.20;;
11735;SDS011;5924;51.398;7.088;2023-08-12T11:44:33;1.00;;;1.00;;
11735;SDS011;5924;51.398;7.088;2023-08-12T11:46:59;0.60;;;0.60;;
11735;SDS011;5924;51.398;7.088;2023-08-12T11:49:24;0.80;;;0.80;;
11735;SDS011;5924;51.398;7.088;2023-08-12T11:51:50;0.97;;;0.97;;
11735;SDS011;5924;51.398;7.088;2023-08-12T11:54:18;3.40;;;0.80;;
11735;SDS011;5924;51.398;7.088;2023-08-12T11:56:47;0.80;;;0.80;;
11735;SDS011;5924;51.398;7.088;2023-08-12T11:59:15;2.30;;;1.10;;
11735;SDS011;5924;51.398;7.088;2023-08-12T12:02:05;0.90;;;0.90;;
11735;SDS011;5924;51.398;7.088;2023-08-12T12:04:37;1.20;;;1.20;;
11735;SDS011;5924;51.398;7.088;2023-08-12T12:07:16;1.20;;;1.10;;
11735;SDS011;5924;51.398;7.088;2023-08-12T12:09:50;1.07;;;1.07;;
11735;SDS011;5924;51.398;7.088;2023-08-12T12:12:25;1.10;;;1.10;;
11735;SDS011;5924;51.398;7.088;2023-08-12T12:14:52;1.00;;;1.00;;
11735;SDS011;5924;51.398;7.088;2023-08-12T12:17:20;1.17;;;1.17;;
11735;SDS011;5924;51.398;7.088;2023-08-12T12:19:56;1.10;;;1.10;;
11735;SDS011;5924;51.398;7.088;2023-08-12T12:22:30;1.90;;;1.00;;
11735;SDS011;5924;51.398;7.088;2023-08-12T12:25:05;1.60;;;1.00;;
11735;SDS011;5924;51.398;7.088;2023-08-12T12:27:32;1.33;;;1.23;;
11735;SDS011;5924;51.398;7.088;2023-08-12T12:32:50;1.33;;;0.90;;
11735;SDS011;5924;51.398;7.088;2023-08-12T12:35:16;3.13;;;1.07;;
11735;SDS011;5924;51.398;7.088;2023-08-12T12:37:42;0.90;;;0.90;;
11735;SDS011;5924;51.398;7.088;2023-08-12T12:40:08;0.90;;;0.90;;
11735;SDS011;5924;51.398;7.088;2023-08-12T12:42:38;0.90;;;0.90;;
11735;SDS011;5924;51.398;7.088;2023-08-12T12:45:06;0.90;;;0.90;;
11735;SDS011;5924;51.398;7.088;2023-08-12T12:47:32;1.00;;;1.00;;
11735;SDS011;5924;51.398;7.088;2023-08-12T12:49:58;2.40;;;1.63;;
11735;SDS011;5924;51.398;7.088;2023-08-12T12:52:24;2.23;;;2.13;;
11735;SDS011;5924;51.398;7.088;2023-08-12T12:54:52;2.00;;;1.90;;
11735;SDS011;5924;51.398;7.088;2023-08-12T12:57:56;3.90;;;2.40;;
11735;SDS011;5924;51.398;7.088;2023-08-12T13:00:24;2.53;;;2.43;;
11735;SDS011;5924;51.398;7.088;2023-08-12T13:02:50;2.20;;;2.00;;
11735;SDS011;5924;51.398;7.088;2023-08-12T13:05:18;2.33;;;2.13;;
11735;SDS011;5924;51.398;7.088;2023-08-12T13:07:44;3.30;;;3.20;;
11735;SDS011;5924;51.398;7.088;2023-08-12T13:10:09;3.47;;;3.27;;
11735;SDS011;5924;51.398;7.088;2023-08-12T13:12:36;5.33;;;3.27;;
11735;SDS011;5924;51.398;7.088;2023-08-12T13:15:03;3.63;;;3.53;;
11735;SDS011;5924;51.398;7.088;2023-08-12T13:17:29;3.50;;;3.50;;
11735;SDS011;5924;51.398;7.088;2023-08-12T13:19:54;3.63;;;3.53;;
11735;SDS011;5924;51.398;7.088;2023-08-12T13:22:20;3.80;;;3.70;;
11735;SDS011;5924;51.398;7.088;2023-08-12T13:24:46;3.70;;;3.60;;
11735;SDS011;5924;51.398;7.088;2023-08-12T13:27:11;4.33;;;4.23;;
11735;SDS011;5924;51.398;7.088;2023-08-12T13:29:47;4.43;;;4.20;;
11735;SDS011;5924;51.398;7.088;2023-08-12T13:32:22;3.30;;;3.20;;
11735;SDS011;5924;51.398;7.088;2023-08-12T13:34:47;3.23;;;3.13;;
11735;SDS011;5924;51.398;7.088;2023-08-12T13:37:13;4.53;;;4.27;;
11735;SDS011;5924;51.398;7.088;2023-08-12T13:39:39;3.43;;;3.23;;
11735;SDS011;5924;51.398;7.088;2023-08-12T13:42:05;4.10;;;3.90;;
11735;SDS011;5924;51.398;7.088;2023-08-12T13:44:31;4.10;;;4.00;;
11735;SDS011;5924;51.398;7.088;2023-08-12T13:46:56;4.83;;;4.63;;
11735;SDS011;5924;51.398;7.088;2023-08-12T13:49:22;5.00;;;4.67;;
11735;SDS011;5924;51.398;7.088;2023-08-12T13:51:47;3.80;;;3.70;;
11735;SDS011;5924;51.398;7.088;2023-08-12T13:54:13;4.50;;;4.40;;
11735;SDS011;5924;51.398;7.088;2023-08-12T13:56:39;5.17;;;4.90;;
11735;SDS011;5924;51.398;7.088;2023-08-12T13:59:04;4.50;;;4.30;;
11735;SDS011;5924;51.398;7.088;2023-08-12T14:01:30;5.47;;;5.07;;
11735;SDS011;5924;51.398;7.088;2023-08-12T14:03:56;4.83;;;4.63;;
11735;SDS011;5924;51.398;7.088;2023-08-12T14:06:21;4.43;;;4.23;;
11735;SDS011;5924;51.398;7.088;2023-08-12T14:08:47;4.07;;;3.97;;
11735;SDS011;5924;51.398;7.088;2023-08-12T14:11:38;3.70;;;3.60;;
11735;SDS011;5924;51.398;7.088;2023-08-12T14:14:04;3.10;;;3.00;;
11735;SDS011;5924;51.398;7.088;2023-08-12T14:16:30;3.03;;;2.93;;
11735;SDS011;5924;51.398;7.088;2023-08-12T14:18:56;2.90;;;2.83;;
11735;SDS011;5924;51.398;7.088;2023-08-12T14:21:22;3.03;;;2.80;;
11735;SDS011;5924;51.398;7.088;2023-08-12T14:23:47;3.70;;;3.60;;
11735;SDS011;5924;51.398;7.088;2023-08-12T14:26:13;4.00;;;3.10;;
11735;SDS011;5924;51.398;7.088;2023-08-12T14:28:39;3.20;;;3.10;;
11735;SDS011;5924;51.398;7.088;2023-08-12T14:31:10;2.37;;;2.23;;
11735;SDS011;5924;51.398;7.088;2023-08-12T14:33:35;2.57;;;2.47;;
11735;SDS011;5924;51.398;7.088;2023-08-12T14:36:02;2.63;;;2.57;;
11735;SDS011;5924;51.398;7.088;2023-08-12T14:38:29;2.30;;;2.30;;
11735;SDS011;5924;51.398;7.088;2023-08-12T14:40:54;2.10;;;2.00;;
11735;SDS011;5924;51.398;7.088;2023-08-12T14:43:44;2.10;;;2.10;;
11735;SDS011;5924;51.398;7.088;2023-08-12T14:46:17;2.43;;;2.33;;
11735;SDS011;5924;51.398;7.088;2023-08-12T14:48:43;3.07;;;2.97;;
11735;SDS011;5924;51.398;7.088;2023-08-12T14:51:09;3.50;;;3.27;;
11735;SDS011;5924;51.398;7.088;2023-08-12T14:53:34;3.00;;;3.00;;
11735;SDS011;5924;51.398;7.088;2023-08-12T14:56:03;2.70;;;2.70;;
11735;SDS011;5924;51.398;7.088;2023-08-12T14:58:35;2.87;;;2.77;;
11735;SDS011;5924;51.398;7.088;2023-08-12T15:01:00;3.83;;;3.10;;
11735;SDS011;5924;51.398;7.088;2023-08-12T15:03:27;3.30;;;3.10;;
11735;SDS011;5924;51.398;7.088;2023-08-12T15:06:08;2.43;;;2.43;;
11735;SDS011;5924;51.398;7.088;2023-08-12T15:08:40;2.50;;;2.40;;
11735;SDS011;5924;51.398;7.088;2023-08-12T15:11:09;2.23;;;2.23;;
11735;SDS011;5924;51.398;7.088;2023-08-12T15:13:34;2.67;;;2.67;;
11735;SDS011;5924;51.398;7.088;2023-08-12T15:16:00;3.27;;;2.30;;